EKOD/ODE METAR and TAF weather

Enter ICAO airport designator
Station Type Date Time Source
EKOD METAR 2021/07/26 13:22 UTC NOAA

EKOD 261322Z 09011KT 060V120 9999 TS FEW065 BKN120TCU 25/21 Q1009


Station Type Date Time Source
EKOD Decoded METAR 2021/07/26 13:22 UTC NOAA

Odense / Beldringe, Denmark (EKOD) 55-29N 010-20E 17M
Jul 26, 2021 - 09:22 AM EDT / 2021.07.26 1322 UTC
Wind: from the E (090 degrees) at 13 MPH (11 KT) (direction variable):0
Visibility: greater than 7 mile(s):0
Sky conditions: mostly cloudy
Weather: thunder; Towering cumulus clouds observed
Temperature: 77 F (25 C)
Dew Point: 69 F (21 C)
Relative Humidity: 78%
Pressure (altimeter): 29.80 in. Hg (1009 hPa)
ob: EKOD 261322Z 09011KT 060V120 9999 TS FEW065 BKN120TCU 25/21 Q1009
cycle: 13

Station Type Date Time Source
EKOD TAF 2015/04/20 17:00 UTC NOAA

TAF
AMD EKOD 201701Z 2017/2018 CNL

Example: see airport list